Patos — WDF6110 — position and weather

sailwx.info

Track history (hours):
 
Tides and Currents Weather Stations Pressure Air Temp Water Temp Dewpoint Dewpoint Depression Visibility Wind Speed Wind Dir Waves Ship Positions

Patos

Owner: Demelza Charters LLP, Bellingham, WA. More information available from US FCC via Universal Licensing System and Coast Guard Vessel Documentation Center.

Last reported at 2016-Sep-26 20:16 UTC. Time now 2016-Oct-01 17:14 UTC.
Position N 48°45' W 122°30'.

Length 16 m.

Type: Pleasure craft. MMSI: 367470750.

Date/timePositionNaut miles runAvg speedWind from/ knotsBaromVisibWave heightAir tempDewpointWater temp
2016-Sep-26 20:16N 48°45' W 122°30'0 0.3
2016-Sep-26 19:21N 48°45' W 122°31'24 6.0
2016-Sep-26 15:23N 48°32' W 123°01'8 0.4
2016-Sep-25 21:31N 48°38' W 123°08'3 0.3
2016-Sep-25 09:08N 48°40' W 123°12'0 0.0
2016-Sep-25 07:26N 48°40' W 123°12'0 0.0
2016-Sep-25 04:11N 48°40' W 123°12'14 2.4
2016-Sep-24 22:14N 48°45' W 122°52'7 8.4
2016-Sep-24 21:27N 48°44' W 122°41'7 0.2
2016-Sep-23 00:30N 48°45' W 122°30'0 0.2
2016-Sep-22 23:20N 48°45' W 122°31'20 7.0
2016-Sep-22 20:28N 48°41' W 123°00'22 0.5
2016-Sep-21 03:04N 48°51' W 123°30'17 0.6
2016-Sep-19 23:05N 48°34' W 123°28'8 1.8
2016-Sep-19 18:28N 48°39' W 123°18'13 6.2
2016-Sep-19 16:23N 48°32' W 123°01'0 0.0
2016-Sep-19 14:24N 48°32' W 123°01'0 0.0
2016-Sep-19 13:27N 48°32' W 123°01'0 0.0
2016-Sep-19 12:18N 48°32' W 123°01'0 0.0
2016-Sep-19 11:31N 48°32' W 123°01'0 0.0
2016-Sep-19 09:30N 48°32' W 123°01'0 0.0
2016-Sep-19 07:30N 48°32' W 123°01'0 0.0
2016-Sep-19 06:24N 48°32' W 123°01'0 0.0
2016-Sep-19 03:24N 48°32' W 123°01'0 0.0
2016-Sep-19 02:24N 48°32' W 123°01'0 0.0
2016-Sep-19 00:30N 48°32' W 123°01'0 0.0
2016-Sep-18 19:30N 48°32' W 123°01'0 0.0
2016-Sep-18 15:24N 48°32' W 123°01'0 0.0
2016-Sep-18 14:30N 48°32' W 123°01'0 0.0
2016-Sep-18 10:18N 48°32' W 123°01'0 0.0
2016-Sep-18 09:21N 48°32' W 123°01'0 0.0
2016-Sep-18 02:33N 48°32' W 123°01'0 0.0
2016-Sep-18 01:25N 48°32' W 123°01'0 0.0
2016-Sep-17 21:18N 48°32' W 123°01'0 0.0
2016-Sep-17 20:24N 48°32' W 123°01'0 0.0
2016-Sep-17 19:02N 48°32' W 123°01'24 1.3
2016-Sep-17 00:30N 48°45' W 122°30'  
Track history (hours):
 
Tides and Currents Weather Stations Pressure Air Temp Water Temp Dewpoint Dewpoint Depression Visibility Wind Speed Wind Dir Waves Ship Positions

Patos

Owner: Demelza Charters LLP, Bellingham, WA. More information available from US FCC via Universal Licensing System and Coast Guard Vessel Documentation Center.

Last reported at 2016-Sep-26 20:16 UTC. Time now 2016-Oct-01 17:14 UTC.
Position N 48°45' W 122°30'.

Length 16 m.

Type: Pleasure craft. MMSI: 367470750.

Date/timePositionNaut miles runAvg speedWind from/ knotsBaromVisibWave heightAir tempDewpointWater temp
2016-Sep-26 20:16N 48°45' W 122°30'0 0.3
2016-Sep-26 19:21N 48°45' W 122°31'24 6.0
2016-Sep-26 15:23N 48°32' W 123°01'8 0.4
2016-Sep-25 21:31N 48°38' W 123°08'3 0.3
2016-Sep-25 09:08N 48°40' W 123°12'0 0.0
2016-Sep-25 07:26N 48°40' W 123°12'0 0.0
2016-Sep-25 04:11N 48°40' W 123°12'14 2.4
2016-Sep-24 22:14N 48°45' W 122°52'7 8.4
2016-Sep-24 21:27N 48°44' W 122°41'7 0.2
2016-Sep-23 00:30N 48°45' W 122°30'0 0.2
2016-Sep-22 23:20N 48°45' W 122°31'20 7.0
2016-Sep-22 20:28N 48°41' W 123°00'22 0.5
2016-Sep-21 03:04N 48°51' W 123°30'17 0.6
2016-Sep-19 23:05N 48°34' W 123°28'8 1.8
2016-Sep-19 18:28N 48°39' W 123°18'13 6.2
2016-Sep-19 16:23N 48°32' W 123°01'0 0.0
2016-Sep-19 14:24N 48°32' W 123°01'0 0.0
2016-Sep-19 13:27N 48°32' W 123°01'0 0.0
2016-Sep-19 12:18N 48°32' W 123°01'0 0.0
2016-Sep-19 11:31N 48°32' W 123°01'0 0.0
2016-Sep-19 09:30N 48°32' W 123°01'0 0.0
2016-Sep-19 07:30N 48°32' W 123°01'0 0.0
2016-Sep-19 06:24N 48°32' W 123°01'0 0.0
2016-Sep-19 03:24N 48°32' W 123°01'0 0.0
2016-Sep-19 02:24N 48°32' W 123°01'0 0.0
2016-Sep-19 00:30N 48°32' W 123°01'0 0.0
2016-Sep-18 19:30N 48°32' W 123°01'0 0.0
2016-Sep-18 15:24N 48°32' W 123°01'0 0.0
2016-Sep-18 14:30N 48°32' W 123°01'0 0.0
2016-Sep-18 10:18N 48°32' W 123°01'0 0.0
2016-Sep-18 09:21N 48°32' W 123°01'0 0.0
2016-Sep-18 02:33N 48°32' W 123°01'0 0.0
2016-Sep-18 01:25N 48°32' W 123°01'0 0.0
2016-Sep-17 21:18N 48°32' W 123°01'0 0.0
2016-Sep-17 20:24N 48°32' W 123°01'0 0.0
2016-Sep-17 19:02N 48°32' W 123°01'24 1.3
2016-Sep-17 00:30N 48°45' W 122°30'  

Dump ship's entire track history